Terminal Aerodrome Forecast
Issued by NWS Newport/Morehead City, NC

Home | Current Version | Previous Version | Graphics & Text | Print | Product List | Glossary On
Versions: 1 2 3 4 5 6 7 8 9 10 11 12 13 14 15 16 17 18 19
000
FTUS42 KMHX 201100 RRA
TAFEWN
TAF
KEWN 201141Z 2012/2112 00000KT 5SM BR FEW008
     FM201300 VRB03KT P6SM SCT040
     FM201700 14006KT P6SM VCSH SCT050 BKN120
     FM210900 00000KT 3SM BR SCT007=

USA.gov is the U.S. government's official web portal to all federal, state and local government web resources and services.